sensor_id;sensor_type;location;lat;lon;timestamp;temperature;humidity
22558;DHT22;11445;53.816;8.902;2024-01-30T00:00:58;6.20;99.90
22558;DHT22;11445;53.816;8.902;2024-01-30T00:03:24;6.20;99.90
22558;DHT22;11445;53.816;8.902;2024-01-30T00:05:53;6.20;99.90
22558;DHT22;11445;53.816;8.902;2024-01-30T00:08:19;6.30;99.90
22558;DHT22;11445;53.816;8.902;2024-01-30T00:10:46;6.30;99.90
22558;DHT22;11445;53.816;8.902;2024-01-30T00:13:13;6.30;99.90
22558;DHT22;11445;53.816;8.902;2024-01-30T00:15:43;6.30;99.90
22558;DHT22;11445;53.816;8.902;2024-01-30T00:18:09;6.30;99.90
22558;DHT22;11445;53.816;8.902;2024-01-30T00:20:36;6.40;99.90
22558;DHT22;11445;53.816;8.902;2024-01-30T00:23:05;6.40;99.90
22558;DHT22;11445;53.816;8.902;2024-01-30T00:25:31;6.40;99.90
22558;DHT22;11445;53.816;8.902;2024-01-30T00:27:58;6.40;99.90
22558;DHT22;11445;53.816;8.902;2024-01-30T00:30:25;6.40;99.90
22558;DHT22;11445;53.816;8.902;2024-01-30T00:32:53;6.40;99.90
22558;DHT22;11445;53.816;8.902;2024-01-30T00:35:19;6.30;99.90
22558;DHT22;11445;53.816;8.902;2024-01-30T00:37:48;6.40;99.90
22558;DHT22;11445;53.816;8.902;2024-01-30T00:40:17;6.30;99.90
22558;DHT22;11445;53.816;8.902;2024-01-30T00:42:43;6.30;99.90
22558;DHT22;11445;53.816;8.902;2024-01-30T00:45:14;6.20;99.90
22558;DHT22;11445;53.816;8.902;2024-01-30T00:47:41;6.20;99.90
22558;DHT22;11445;53.816;8.902;2024-01-30T00:50:08;6.20;99.90
22558;DHT22;11445;53.816;8.902;2024-01-30T00:52:35;6.20;99.90
22558;DHT22;11445;53.816;8.902;2024-01-30T00:55:02;6.10;99.90
22558;DHT22;11445;53.816;8.902;2024-01-30T00:57:31;6.10;99.90
22558;DHT22;11445;53.816;8.902;2024-01-30T00:59:57;6.10;99.90
22558;DHT22;11445;53.816;8.902;2024-01-30T01:02:24;6.10;99.90
22558;DHT22;11445;53.816;8.902;2024-01-30T01:04:51;6.10;99.90
22558;DHT22;11445;53.816;8.902;2024-01-30T01:07:18;6.10;99.90
22558;DHT22;11445;53.816;8.902;2024-01-30T01:09:45;6.10;99.90
22558;DHT22;11445;53.816;8.902;2024-01-30T01:12:11;6.10;99.90
22558;DHT22;11445;53.816;8.902;2024-01-30T01:14:40;6.10;99.90
22558;DHT22;11445;53.816;8.902;2024-01-30T01:17:07;6.10;99.90
22558;DHT22;11445;53.816;8.902;2024-01-30T01:19:34;6.10;99.90
22558;DHT22;11445;53.816;8.902;2024-01-30T01:22:01;6.10;99.90
22558;DHT22;11445;53.816;8.902;2024-01-30T01:24:29;6.10;99.90
22558;DHT22;11445;53.816;8.902;2024-01-30T01:26:56;6.00;99.90
22558;DHT22;11445;53.816;8.902;2024-01-30T01:29:23;6.10;99.90
22558;DHT22;11445;53.816;8.902;2024-01-30T01:31:55;6.00;99.90
22558;DHT22;11445;53.816;8.902;2024-01-30T01:34:22;6.00;99.90
22558;DHT22;11445;53.816;8.902;2024-01-30T01:36:49;6.00;99.90
22558;DHT22;11445;53.816;8.902;2024-01-30T01:39:16;6.00;99.90
22558;DHT22;11445;53.816;8.902;2024-01-30T01:41:43;6.00;99.90
22558;DHT22;11445;53.816;8.902;2024-01-30T01:44:10;6.00;99.90
22558;DHT22;11445;53.816;8.902;2024-01-30T01:46:37;6.00;99.90
22558;DHT22;11445;53.816;8.902;2024-01-30T01:49:07;6.00;99.90
22558;DHT22;11445;53.816;8.902;2024-01-30T01:51:36;6.00;99.90
22558;DHT22;11445;53.816;8.902;2024-01-30T01:54:04;6.00;99.90
22558;DHT22;11445;53.816;8.902;2024-01-30T01:56:31;6.00;99.90
22558;DHT22;11445;53.816;8.902;2024-01-30T01:59:00;6.00;99.90
22558;DHT22;11445;53.816;8.902;2024-01-30T02:01:29;6.00;99.90
22558;DHT22;11445;53.816;8.902;2024-01-30T02:03:56;5.90;99.90
22558;DHT22;11445;53.816;8.902;2024-01-30T02:06:24;5.90;99.90
22558;DHT22;11445;53.816;8.902;2024-01-30T02:08:51;5.90;99.90
22558;DHT22;11445;53.816;8.902;2024-01-30T02:11:18;5.90;99.90
22558;DHT22;11445;53.816;8.902;2024-01-30T02:13:46;5.90;99.90
22558;DHT22;11445;53.816;8.902;2024-01-30T02:16:12;5.80;99.90
22558;DHT22;11445;53.816;8.902;2024-01-30T02:18:39;5.80;99.90
22558;DHT22;11445;53.816;8.902;2024-01-30T02:21:10;5.80;99.90
22558;DHT22;11445;53.816;8.902;2024-01-30T02:23:37;5.70;99.90
22558;DHT22;11445;53.816;8.902;2024-01-30T02:26:04;5.70;99.90
22558;DHT22;11445;53.816;8.902;2024-01-30T02:28:31;5.70;99.90
22558;DHT22;11445;53.816;8.902;2024-01-30T02:30:58;5.70;99.90
22558;DHT22;11445;53.816;8.902;2024-01-30T02:33:24;5.60;99.90
22558;DHT22;11445;53.816;8.902;2024-01-30T02:35:51;5.60;99.90
22558;DHT22;11445;53.816;8.902;2024-01-30T02:38:19;5.60;99.90
22558;DHT22;11445;53.816;8.902;2024-01-30T02:40:46;5.60;99.90
22558;DHT22;11445;53.816;8.902;2024-01-30T02:43:13;5.50;99.90
22558;DHT22;11445;53.816;8.902;2024-01-30T02:45:40;5.50;99.90
22558;DHT22;11445;53.816;8.902;2024-01-30T02:48:07;5.50;99.90
22558;DHT22;11445;53.816;8.902;2024-01-30T02:50:34;5.40;99.90
22558;DHT22;11445;53.816;8.902;2024-01-30T02:53:00;5.40;99.90
22558;DHT22;11445;53.816;8.902;2024-01-30T02:55:29;5.40;99.90
22558;DHT22;11445;53.816;8.902;2024-01-30T02:57:55;5.40;99.90
22558;DHT22;11445;53.816;8.902;2024-01-30T03:00:23;5.40;99.90
22558;DHT22;11445;53.816;8.902;2024-01-30T03:02:50;5.30;99.90
22558;DHT22;11445;53.816;8.902;2024-01-30T03:05:17;5.30;99.90
22558;DHT22;11445;53.816;8.902;2024-01-30T03:07:43;5.30;99.90
22558;DHT22;11445;53.816;8.902;2024-01-30T03:10:10;5.30;99.90
22558;DHT22;11445;53.816;8.902;2024-01-30T03:12:38;5.20;99.90
22558;DHT22;11445;53.816;8.902;2024-01-30T03:15:06;5.20;99.90
22558;DHT22;11445;53.816;8.902;2024-01-30T03:17:32;5.20;99.90
22558;DHT22;11445;53.816;8.902;2024-01-30T03:19:59;5.10;99.90
22558;DHT22;11445;53.816;8.902;2024-01-30T03:22:26;5.10;99.90
22558;DHT22;11445;53.816;8.902;2024-01-30T03:24:53;5.10;99.90
22558;DHT22;11445;53.816;8.902;2024-01-30T03:27:19;5.10;99.90
22558;DHT22;11445;53.816;8.902;2024-01-30T03:29:48;5.00;99.90
22558;DHT22;11445;53.816;8.902;2024-01-30T03:32:14;5.10;99.90
22558;DHT22;11445;53.816;8.902;2024-01-30T03:34:41;5.10;99.90
22558;DHT22;11445;53.816;8.902;2024-01-30T03:37:08;5.00;99.90
22558;DHT22;11445;53.816;8.902;2024-01-30T03:39:35;5.00;99.90
22558;DHT22;11445;53.816;8.902;2024-01-30T03:42:02;5.00;99.90
22558;DHT22;11445;53.816;8.902;2024-01-30T03:44:29;5.00;99.90
22558;DHT22;11445;53.816;8.902;2024-01-30T03:46:57;5.00;99.90
22558;DHT22;11445;53.816;8.902;2024-01-30T03:49:24;5.00;99.90
22558;DHT22;11445;53.816;8.902;2024-01-30T03:51:51;5.00;99.90
22558;DHT22;11445;53.816;8.902;2024-01-30T03:54:17;5.00;99.90
22558;DHT22;11445;53.816;8.902;2024-01-30T03:56:44;4.90;99.90
22558;DHT22;11445;53.816;8.902;2024-01-30T03:59:11;4.90;99.90
22558;DHT22;11445;53.816;8.902;2024-01-30T04:01:38;4.90;99.90
22558;DHT22;11445;53.816;8.902;2024-01-30T04:04:06;4.90;99.90
22558;DHT22;11445;53.816;8.902;2024-01-30T04:06:32;4.90;99.90
22558;DHT22;11445;53.816;8.902;2024-01-30T04:08:59;4.90;99.90
22558;DHT22;11445;53.816;8.902;2024-01-30T04:11:26;4.80;99.90
22558;DHT22;11445;53.816;8.902;2024-01-30T04:13:54;4.80;99.90
22558;DHT22;11445;53.816;8.902;2024-01-30T04:16:21;4.80;99.90
22558;DHT22;11445;53.816;8.902;2024-01-30T04:18:48;4.80;99.90
22558;DHT22;11445;53.816;8.902;2024-01-30T04:21:16;4.80;99.90
22558;DHT22;11445;53.816;8.902;2024-01-30T04:23:43;4.80;99.90
22558;DHT22;11445;53.816;8.902;2024-01-30T04:26:10;4.80;99.90
22558;DHT22;11445;53.816;8.902;2024-01-30T04:28:37;4.80;99.90
22558;DHT22;11445;53.816;8.902;2024-01-30T04:31:04;4.80;99.90
22558;DHT22;11445;53.816;8.902;2024-01-30T04:33:30;4.70;99.90
22558;DHT22;11445;53.816;8.902;2024-01-30T04:35:57;4.70;99.90
22558;DHT22;11445;53.816;8.902;2024-01-30T04:38:25;4.70;99.90
22558;DHT22;11445;53.816;8.902;2024-01-30T04:40:52;4.70;99.90
22558;DHT22;11445;53.816;8.902;2024-01-30T04:43:19;4.80;99.90
22558;DHT22;11445;53.816;8.902;2024-01-30T04:45:46;4.70;99.90
22558;DHT22;11445;53.816;8.902;2024-01-30T04:48:13;4.70;99.90
22558;DHT22;11445;53.816;8.902;2024-01-30T04:50:39;4.70;99.90
22558;DHT22;11445;53.816;8.902;2024-01-30T04:53:06;4.70;99.90
22558;DHT22;11445;53.816;8.902;2024-01-30T04:55:35;4.70;99.90
22558;DHT22;11445;53.816;8.902;2024-01-30T04:58:02;4.70;99.90
22558;DHT22;11445;53.816;8.902;2024-01-30T05:00:29;4.70;99.90
22558;DHT22;11445;53.816;8.902;2024-01-30T05:02:56;4.70;99.90
22558;DHT22;11445;53.816;8.902;2024-01-30T05:05:22;4.70;99.90
22558;DHT22;11445;53.816;8.902;2024-01-30T05:07:49;4.70;99.90
22558;DHT22;11445;53.816;8.902;2024-01-30T05:10:16;4.60;99.90
22558;DHT22;11445;53.816;8.902;2024-01-30T05:12:45;4.60;99.90
22558;DHT22;11445;53.816;8.902;2024-01-30T05:15:11;4.60;99.90
22558;DHT22;11445;53.816;8.902;2024-01-30T05:17:38;4.60;99.90
22558;DHT22;11445;53.816;8.902;2024-01-30T05:20:06;4.60;99.90
22558;DHT22;11445;53.816;8.902;2024-01-30T05:22:33;4.60;99.90
22558;DHT22;11445;53.816;8.902;2024-01-30T05:25:01;4.60;99.90
22558;DHT22;11445;53.816;8.902;2024-01-30T05:27:29;4.60;99.90
22558;DHT22;11445;53.816;8.902;2024-01-30T05:29:57;4.60;99.90
22558;DHT22;11445;53.816;8.902;2024-01-30T05:32:24;4.60;99.90
22558;DHT22;11445;53.816;8.902;2024-01-30T05:34:50;4.60;99.90
22558;DHT22;11445;53.816;8.902;2024-01-30T05:37:17;4.60;99.90
22558;DHT22;11445;53.816;8.902;2024-01-30T05:39:44;4.60;99.90
22558;DHT22;11445;53.816;8.902;2024-01-30T05:42:11;4.60;99.90
22558;DHT22;11445;53.816;8.902;2024-01-30T05:44:38;4.60;99.90
22558;DHT22;11445;53.816;8.902;2024-01-30T05:47:06;4.70;99.90
22558;DHT22;11445;53.816;8.902;2024-01-30T05:49:33;4.70;99.90
22558;DHT22;11445;53.816;8.902;2024-01-30T05:52:01;4.70;99.90
22558;DHT22;11445;53.816;8.902;2024-01-30T05:54:28;4.70;99.90
22558;DHT22;11445;53.816;8.902;2024-01-30T05:56:55;4.70;99.90
22558;DHT22;11445;53.816;8.902;2024-01-30T05:59:22;4.70;99.90
22558;DHT22;11445;53.816;8.902;2024-01-30T06:01:49;4.70;99.90
22558;DHT22;11445;53.816;8.902;2024-01-30T06:04:17;4.70;99.90
22558;DHT22;11445;53.816;8.902;2024-01-30T06:06:43;4.70;99.90
22558;DHT22;11445;53.816;8.902;2024-01-30T06:09:10;4.70;99.90
22558;DHT22;11445;53.816;8.902;2024-01-30T06:11:38;4.90;99.90
22558;DHT22;11445;53.816;8.902;2024-01-30T06:14:05;5.00;99.90
22558;DHT22;11445;53.816;8.902;2024-01-30T06:16:32;5.00;99.90
22558;DHT22;11445;53.816;8.902;2024-01-30T06:18:59;5.00;99.90
22558;DHT22;11445;53.816;8.902;2024-01-30T06:21:27;5.00;99.90
22558;DHT22;11445;53.816;8.902;2024-01-30T06:23:54;4.90;99.90
22558;DHT22;11445;53.816;8.902;2024-01-30T06:26:21;4.90;99.90
22558;DHT22;11445;53.816;8.902;2024-01-30T06:28:48;4.90;99.90
22558;DHT22;11445;53.816;8.902;2024-01-30T06:31:14;4.80;99.90
22558;DHT22;11445;53.816;8.902;2024-01-30T06:33:41;4.80;99.90
22558;DHT22;11445;53.816;8.902;2024-01-30T06:36:08;4.80;99.90
22558;DHT22;11445;53.816;8.902;2024-01-30T06:38:36;4.80;99.90
22558;DHT22;11445;53.816;8.902;2024-01-30T06:41:03;4.70;99.90
22558;DHT22;11445;53.816;8.902;2024-01-30T06:43:30;4.80;99.90
22558;DHT22;11445;53.816;8.902;2024-01-30T06:45:57;4.70;99.90
22558;DHT22;11445;53.816;8.902;2024-01-30T06:48:24;4.70;99.90
22558;DHT22;11445;53.816;8.902;2024-01-30T06:50:53;4.70;99.90
22558;DHT22;11445;53.816;8.902;2024-01-30T06:53:20;4.90;99.90
22558;DHT22;11445;53.816;8.902;2024-01-30T06:55:48;4.90;99.90
22558;DHT22;11445;53.816;8.902;2024-01-30T06:58:14;4.90;99.90
22558;DHT22;11445;53.816;8.902;2024-01-30T07:00:41;5.00;99.90
22558;DHT22;11445;53.816;8.902;2024-01-30T07:03:08;5.00;99.90
22558;DHT22;11445;53.816;8.902;2024-01-30T07:05:35;4.90;99.90
22558;DHT22;11445;53.816;8.902;2024-01-30T07:08:02;5.00;99.90
22558;DHT22;11445;53.816;8.902;2024-01-30T07:10:28;5.00;99.90
22558;DHT22;11445;53.816;8.902;2024-01-30T07:12:58;5.00;99.90
22558;DHT22;11445;53.816;8.902;2024-01-30T07:15:26;5.00;99.90
22558;DHT22;11445;53.816;8.902;2024-01-30T07:17:53;5.00;99.90
22558;DHT22;11445;53.816;8.902;2024-01-30T07:20:20;5.00;99.90
22558;DHT22;11445;53.816;8.902;2024-01-30T07:22:46;5.00;99.90
22558;DHT22;11445;53.816;8.902;2024-01-30T07:25:13;5.00;99.90
22558;DHT22;11445;53.816;8.902;2024-01-30T07:27:42;5.00;99.90
22558;DHT22;11445;53.816;8.902;2024-01-30T07:30:11;5.00;99.90
22558;DHT22;11445;53.816;8.902;2024-01-30T07:32:38;5.10;99.90
22558;DHT22;11445;53.816;8.902;2024-01-30T07:35:05;5.10;99.90
22558;DHT22;11445;53.816;8.902;2024-01-30T07:37:32;5.10;99.90
22558;DHT22;11445;53.816;8.902;2024-01-30T07:39:59;5.10;99.90
22558;DHT22;11445;53.816;8.902;2024-01-30T07:42:26;5.10;99.90
22558;DHT22;11445;53.816;8.902;2024-01-30T07:44:52;5.10;99.90
22558;DHT22;11445;53.816;8.902;2024-01-30T07:47:21;5.10;99.90
22558;DHT22;11445;53.816;8.902;2024-01-30T07:49:47;5.20;99.90
22558;DHT22;11445;53.816;8.902;2024-01-30T07:52:14;5.20;99.90
22558;DHT22;11445;53.816;8.902;2024-01-30T07:54:42;5.20;99.90
22558;DHT22;11445;53.816;8.902;2024-01-30T07:57:09;5.20;99.90
22558;DHT22;11445;53.816;8.902;2024-01-30T07:59:35;5.20;99.90
22558;DHT22;11445;53.816;8.902;2024-01-30T08:02:03;5.30;99.90
22558;DHT22;11445;53.816;8.902;2024-01-30T08:04:31;5.30;99.90
22558;DHT22;11445;53.816;8.902;2024-01-30T08:06:58;5.30;99.90
22558;DHT22;11445;53.816;8.902;2024-01-30T08:09:24;5.30;99.90
22558;DHT22;11445;53.816;8.902;2024-01-30T08:11:51;5.30;99.90
22558;DHT22;11445;53.816;8.902;2024-01-30T08:14:18;5.30;99.90
22558;DHT22;11445;53.816;8.902;2024-01-30T08:16:45;5.40;99.90
22558;DHT22;11445;53.816;8.902;2024-01-30T08:19:12;5.40;99.90
22558;DHT22;11445;53.816;8.902;2024-01-30T08:21:40;5.40;99.90
22558;DHT22;11445;53.816;8.902;2024-01-30T08:24:07;5.40;99.90
22558;DHT22;11445;53.816;8.902;2024-01-30T08:26:34;5.50;99.90
22558;DHT22;11445;53.816;8.902;2024-01-30T08:29:02;5.50;99.90
22558;DHT22;11445;53.816;8.902;2024-01-30T08:31:29;5.50;99.90
22558;DHT22;11445;53.816;8.902;2024-01-30T08:33:56;5.50;99.90
22558;DHT22;11445;53.816;8.902;2024-01-30T08:36:23;5.50;99.90
22558;DHT22;11445;53.816;8.902;2024-01-30T08:38:51;5.50;99.90
22558;DHT22;11445;53.816;8.902;2024-01-30T08:41:17;5.50;99.90
22558;DHT22;11445;53.816;8.902;2024-01-30T08:43:44;5.60;99.90
22558;DHT22;11445;53.816;8.902;2024-01-30T08:46:12;5.60;99.90
22558;DHT22;11445;53.816;8.902;2024-01-30T08:48:39;5.60;99.90
22558;DHT22;11445;53.816;8.902;2024-01-30T08:51:06;5.60;99.90
22558;DHT22;11445;53.816;8.902;2024-01-30T08:53:34;5.70;99.90
22558;DHT22;11445;53.816;8.902;2024-01-30T08:56:04;5.70;99.90
22558;DHT22;11445;53.816;8.902;2024-01-30T08:58:30;5.70;99.90
22558;DHT22;11445;53.816;8.902;2024-01-30T09:00:58;5.80;99.90
22558;DHT22;11445;53.816;8.902;2024-01-30T09:03:25;5.80;99.90
22558;DHT22;11445;53.816;8.902;2024-01-30T09:05:51;5.90;99.90
22558;DHT22;11445;53.816;8.902;2024-01-30T09:08:18;5.90;99.90
22558;DHT22;11445;53.816;8.902;2024-01-30T09:10:45;5.90;99.90
22558;DHT22;11445;53.816;8.902;2024-01-30T09:13:13;6.00;99.90
22558;DHT22;11445;53.816;8.902;2024-01-30T09:15:41;6.00;99.90
22558;DHT22;11445;53.816;8.902;2024-01-30T09:18:09;6.10;99.90
22558;DHT22;11445;53.816;8.902;2024-01-30T09:20:35;6.10;99.90
22558;DHT22;11445;53.816;8.902;2024-01-30T09:23:02;6.20;99.90
22558;DHT22;11445;53.816;8.902;2024-01-30T09:25:29;6.20;99.90
22558;DHT22;11445;53.816;8.902;2024-01-30T09:27:56;6.20;99.90
22558;DHT22;11445;53.816;8.902;2024-01-30T09:30:24;6.30;99.90
22558;DHT22;11445;53.816;8.902;2024-01-30T09:32:51;6.30;99.90
22558;DHT22;11445;53.816;8.902;2024-01-30T09:35:18;6.40;99.90
22558;DHT22;11445;53.816;8.902;2024-01-30T09:37:44;6.40;99.90
22558;DHT22;11445;53.816;8.902;2024-01-30T09:40:11;6.40;99.90
22558;DHT22;11445;53.816;8.902;2024-01-30T09:42:38;6.50;99.90
22558;DHT22;11445;53.816;8.902;2024-01-30T09:45:07;6.50;99.90
22558;DHT22;11445;53.816;8.902;2024-01-30T09:47:40;6.70;99.90
22558;DHT22;11445;53.816;8.902;2024-01-30T09:50:09;6.70;99.90
22558;DHT22;11445;53.816;8.902;2024-01-30T09:52:36;6.80;99.90
22558;DHT22;11445;53.816;8.902;2024-01-30T09:55:04;6.80;99.90
22558;DHT22;11445;53.816;8.902;2024-01-30T09:57:31;6.80;99.90
22558;DHT22;11445;53.816;8.902;2024-01-30T09:59:58;6.90;99.90
22558;DHT22;11445;53.816;8.902;2024-01-30T10:02:24;6.80;99.90
22558;DHT22;11445;53.816;8.902;2024-01-30T10:04:53;6.90;99.90
22558;DHT22;11445;53.816;8.902;2024-01-30T10:07:20;6.90;99.90
22558;DHT22;11445;53.816;8.902;2024-01-30T10:09:47;6.90;99.90
22558;DHT22;11445;53.816;8.902;2024-01-30T10:12:15;6.90;99.90
22558;DHT22;11445;53.816;8.902;2024-01-30T10:14:42;6.90;99.90
22558;DHT22;11445;53.816;8.902;2024-01-30T10:17:10;7.00;99.90
22558;DHT22;11445;53.816;8.902;2024-01-30T10:19:37;7.00;99.90
22558;DHT22;11445;53.816;8.902;2024-01-30T10:22:05;7.00;99.90
22558;DHT22;11445;53.816;8.902;2024-01-30T10:24:33;7.10;99.90
22558;DHT22;11445;53.816;8.902;2024-01-30T10:27:00;7.10;99.90
22558;DHT22;11445;53.816;8.902;2024-01-30T10:29:27;7.10;99.90
22558;DHT22;11445;53.816;8.902;2024-01-30T10:31:58;7.10;99.90
22558;DHT22;11445;53.816;8.902;2024-01-30T10:34:25;7.10;99.90
22558;DHT22;11445;53.816;8.902;2024-01-30T10:36:59;7.10;99.90
22558;DHT22;11445;53.816;8.902;2024-01-30T10:39:29;7.10;99.90
22558;DHT22;11445;53.816;8.902;2024-01-30T10:42:00;7.10;99.90
22558;DHT22;11445;53.816;8.902;2024-01-30T10:44:30;7.20;99.90
22558;DHT22;11445;53.816;8.902;2024-01-30T10:47:05;7.20;99.90
22558;DHT22;11445;53.816;8.902;2024-01-30T10:49:33;7.30;99.90
22558;DHT22;11445;53.816;8.902;2024-01-30T10:52:00;7.30;99.90
22558;DHT22;11445;53.816;8.902;2024-01-30T10:54:29;7.30;99.90
22558;DHT22;11445;53.816;8.902;2024-01-30T10:56:57;7.30;99.90
22558;DHT22;11445;53.816;8.902;2024-01-30T10:59:28;7.40;99.90
22558;DHT22;11445;53.816;8.902;2024-01-30T11:01:57;7.40;99.90
22558;DHT22;11445;53.816;8.902;2024-01-30T11:04:24;7.40;99.90
22558;DHT22;11445;53.816;8.902;2024-01-30T11:06:51;7.40;99.90
22558;DHT22;11445;53.816;8.902;2024-01-30T11:09:18;7.50;99.90
22558;DHT22;11445;53.816;8.902;2024-01-30T11:11:51;7.50;99.90
22558;DHT22;11445;53.816;8.902;2024-01-30T11:14:24;7.50;99.90
22558;DHT22;11445;53.816;8.902;2024-01-30T11:16:51;7.60;99.90
22558;DHT22;11445;53.816;8.902;2024-01-30T11:19:23;7.60;99.90
22558;DHT22;11445;53.816;8.902;2024-01-30T11:21:51;7.60;99.90
22558;DHT22;11445;53.816;8.902;2024-01-30T11:24:20;7.70;99.90
22558;DHT22;11445;53.816;8.902;2024-01-30T11:26:48;7.80;99.90
22558;DHT22;11445;53.816;8.902;2024-01-30T11:29:18;7.80;99.90
22558;DHT22;11445;53.816;8.902;2024-01-30T11:31:55;7.90;99.90
22558;DHT22;11445;53.816;8.902;2024-01-30T11:34:22;8.00;99.90
22558;DHT22;11445;53.816;8.902;2024-01-30T11:36:52;8.00;99.90
22558;DHT22;11445;53.816;8.902;2024-01-30T11:39:24;8.10;99.90
22558;DHT22;11445;53.816;8.902;2024-01-30T11:41:51;8.20;99.90
22558;DHT22;11445;53.816;8.902;2024-01-30T11:44:20;8.30;99.90
22558;DHT22;11445;53.816;8.902;2024-01-30T11:46:48;8.30;99.90
22558;DHT22;11445;53.816;8.902;2024-01-30T11:49:16;8.40;99.90
22558;DHT22;11445;53.816;8.902;2024-01-30T11:51:44;8.40;99.90
22558;DHT22;11445;53.816;8.902;2024-01-30T11:54:14;8.40;99.90
22558;DHT22;11445;53.816;8.902;2024-01-30T11:56:41;8.50;99.90
22558;DHT22;11445;53.816;8.902;2024-01-30T11:59:08;8.50;99.90
22558;DHT22;11445;53.816;8.902;2024-01-30T12:01:36;8.60;99.90
22558;DHT22;11445;53.816;8.902;2024-01-30T12:04:04;8.60;99.90
22558;DHT22;11445;53.816;8.902;2024-01-30T12:06:34;8.60;99.90
22558;DHT22;11445;53.816;8.902;2024-01-30T12:09:02;8.60;99.90
22558;DHT22;11445;53.816;8.902;2024-01-30T12:11:30;8.70;99.90
22558;DHT22;11445;53.816;8.902;2024-01-30T12:13:57;8.70;99.90
22558;DHT22;11445;53.816;8.902;2024-01-30T12:16:24;8.70;99.90
22558;DHT22;11445;53.816;8.902;2024-01-30T12:19:00;8.70;99.90
22558;DHT22;11445;53.816;8.902;2024-01-30T12:21:28;8.70;99.90
22558;DHT22;11445;53.816;8.902;2024-01-30T12:23:55;8.70;99.90
22558;DHT22;11445;53.816;8.902;2024-01-30T12:26:23;8.70;99.90
22558;DHT22;11445;53.816;8.902;2024-01-30T12:28:50;8.70;99.90
22558;DHT22;11445;53.816;8.902;2024-01-30T12:31:17;8.80;99.90
22558;DHT22;11445;53.816;8.902;2024-01-30T12:33:43;8.80;99.90
22558;DHT22;11445;53.816;8.902;2024-01-30T12:36:12;8.90;99.90
22558;DHT22;11445;53.816;8.902;2024-01-30T12:38:39;8.90;99.90
22558;DHT22;11445;53.816;8.902;2024-01-30T12:41:07;8.90;99.90
22558;DHT22;11445;53.816;8.902;2024-01-30T12:43:35;8.90;99.90
22558;DHT22;11445;53.816;8.902;2024-01-30T12:46:03;8.90;99.90
22558;DHT22;11445;53.816;8.902;2024-01-30T12:48:30;8.90;99.90
22558;DHT22;11445;53.816;8.902;2024-01-30T12:50:57;8.90;99.90
22558;DHT22;11445;53.816;8.902;2024-01-30T12:53:25;8.90;99.90
22558;DHT22;11445;53.816;8.902;2024-01-30T12:55:52;8.90;99.90
22558;DHT22;11445;53.816;8.902;2024-01-30T12:58:19;8.90;99.90
22558;DHT22;11445;53.816;8.902;2024-01-30T13:00:46;9.00;99.90
22558;DHT22;11445;53.816;8.902;2024-01-30T13:03:13;8.90;99.90
22558;DHT22;11445;53.816;8.902;2024-01-30T13:05:40;9.00;99.90
22558;DHT22;11445;53.816;8.902;2024-01-30T13:08:07;9.00;99.90
22558;DHT22;11445;53.816;8.902;2024-01-30T13:10:35;9.00;99.90
22558;DHT22;11445;53.816;8.902;2024-01-30T13:13:02;9.00;99.90
22558;DHT22;11445;53.816;8.902;2024-01-30T13:15:29;9.00;99.90
22558;DHT22;11445;53.816;8.902;2024-01-30T13:17:56;9.10;99.90
22558;DHT22;11445;53.816;8.902;2024-01-30T13:20:23;9.10;99.90
22558;DHT22;11445;53.816;8.902;2024-01-30T13:22:50;9.10;99.90
22558;DHT22;11445;53.816;8.902;2024-01-30T13:25:16;9.10;99.90
22558;DHT22;11445;53.816;8.902;2024-01-30T13:27:45;9.10;99.90
22558;DHT22;11445;53.816;8.902;2024-01-30T13:30:12;9.10;99.90
22558;DHT22;11445;53.816;8.902;2024-01-30T13:32:39;9.10;99.90
22558;DHT22;11445;53.816;8.902;2024-01-30T13:35:09;9.10;99.90
22558;DHT22;11445;53.816;8.902;2024-01-30T13:37:36;9.10;99.90
22558;DHT22;11445;53.816;8.902;2024-01-30T13:40:04;9.20;99.90
22558;DHT22;11445;53.816;8.902;2024-01-30T13:42:32;9.20;99.90
22558;DHT22;11445;53.816;8.902;2024-01-30T13:45:00;9.20;99.90
22558;DHT22;11445;53.816;8.902;2024-01-30T13:47:27;9.20;99.90
22558;DHT22;11445;53.816;8.902;2024-01-30T13:49:54;9.20;99.90
22558;DHT22;11445;53.816;8.902;2024-01-30T13:52:21;9.20;99.90
22558;DHT22;11445;53.816;8.902;2024-01-30T13:54:48;9.30;99.90
22558;DHT22;11445;53.816;8.902;2024-01-30T13:57:14;9.20;99.90
22558;DHT22;11445;53.816;8.902;2024-01-30T13:59:41;9.20;99.90
22558;DHT22;11445;53.816;8.902;2024-01-30T14:02:09;9.20;99.90
22558;DHT22;11445;53.816;8.902;2024-01-30T14:04:36;9.20;99.90
22558;DHT22;11445;53.816;8.902;2024-01-30T14:07:04;9.30;99.90
22558;DHT22;11445;53.816;8.902;2024-01-30T14:09:31;9.40;99.90
22558;DHT22;11445;53.816;8.902;2024-01-30T14:11:58;9.50;99.90
22558;DHT22;11445;53.816;8.902;2024-01-30T14:14:25;9.60;99.90
22558;DHT22;11445;53.816;8.902;2024-01-30T14:16:52;9.60;99.90
22558;DHT22;11445;53.816;8.902;2024-01-30T14:19:20;9.60;99.90
22558;DHT22;11445;53.816;8.902;2024-01-30T14:21:47;9.60;99.90
22558;DHT22;11445;53.816;8.902;2024-01-30T14:24:14;9.60;99.90
22558;DHT22;11445;53.816;8.902;2024-01-30T14:26:40;9.50;99.90
22558;DHT22;11445;53.816;8.902;2024-01-30T14:29:08;9.50;99.90
22558;DHT22;11445;53.816;8.902;2024-01-30T14:31:35;9.50;99.90
22558;DHT22;11445;53.816;8.902;2024-01-30T14:34:01;9.50;99.90
22558;DHT22;11445;53.816;8.902;2024-01-30T14:36:30;9.60;99.90
22558;DHT22;11445;53.816;8.902;2024-01-30T14:38:56;9.60;99.90
22558;DHT22;11445;53.816;8.902;2024-01-30T14:41:23;9.60;99.90
22558;DHT22;11445;53.816;8.902;2024-01-30T14:43:50;9.60;99.90
22558;DHT22;11445;53.816;8.902;2024-01-30T14:46:17;9.60;99.90
22558;DHT22;11445;53.816;8.902;2024-01-30T14:48:44;9.60;99.90
22558;DHT22;11445;53.816;8.902;2024-01-30T14:51:10;9.60;99.90
22558;DHT22;11445;53.816;8.902;2024-01-30T14:53:39;9.60;99.90
22558;DHT22;11445;53.816;8.902;2024-01-30T14:56:06;9.60;99.90
22558;DHT22;11445;53.816;8.902;2024-01-30T14:58:33;9.60;99.90
22558;DHT22;11445;53.816;8.902;2024-01-30T15:01:00;9.60;99.90
22558;DHT22;11445;53.816;8.902;2024-01-30T15:03:27;9.60;99.90
22558;DHT22;11445;53.816;8.902;2024-01-30T15:05:54;9.60;99.90
22558;DHT22;11445;53.816;8.902;2024-01-30T15:08:22;9.60;99.90
22558;DHT22;11445;53.816;8.902;2024-01-30T15:10:50;9.60;99.90
22558;DHT22;11445;53.816;8.902;2024-01-30T15:13:17;9.60;99.90
22558;DHT22;11445;53.816;8.902;2024-01-30T15:15:44;9.50;99.90
22558;DHT22;11445;53.816;8.902;2024-01-30T15:18:11;9.50;99.90
22558;DHT22;11445;53.816;8.902;2024-01-30T15:20:37;9.50;99.90
22558;DHT22;11445;53.816;8.902;2024-01-30T15:23:04;9.50;99.90
22558;DHT22;11445;53.816;8.902;2024-01-30T15:25:31;9.50;99.90
22558;DHT22;11445;53.816;8.902;2024-01-30T15:27:59;9.40;99.90
22558;DHT22;11445;53.816;8.902;2024-01-30T15:30:26;9.40;99.90
22558;DHT22;11445;53.816;8.902;2024-01-30T15:32:53;9.40;99.90
22558;DHT22;11445;53.816;8.902;2024-01-30T15:35:19;9.50;99.90
22558;DHT22;11445;53.816;8.902;2024-01-30T15:37:47;9.50;99.90
22558;DHT22;11445;53.816;8.902;2024-01-30T15:40:13;9.50;99.90
22558;DHT22;11445;53.816;8.902;2024-01-30T15:42:41;9.60;99.90
22558;DHT22;11445;53.816;8.902;2024-01-30T15:45:10;9.50;99.90